Latest Weather Observations for Ouse

IDT60801

Issued at 11:01 pm EST Friday 31 July 2015 (issued every 30 minutes, with the page automatically refreshed every 10 minutes)

About weather observations | Map of weather stations | Latest weather observations for TAS | Other Formats
Station Details ID: 095048 Name: OUSE FIRE STATION Lat: -42.48 Lon: 146.71 Height: 90.0 m
Data from the previous 72 hours. | See also: Recent months at Ouse
Date/Time
EST
Temp
°C
App
Temp
°C
Dew
Point
Rel
Hum
%
Delta-T
°C
Wind Press
QNH
hPa
Press
MSL
hPa
Rain
since 9 am
mm
Dir
 
Spd
km/h
Gust
km/h
Spd
kts
Gust
kts
31/11:00pm 5.9 2.2 2.4 78 1.4 NNW 11 17 6 9 1003.7 1004.0 0.0
31/10:30pm 6.1 2.4 2.4 77 1.5 N 11 15 6 8 1004.2 1004.5 0.0
31/10:00pm 5.4 1.3 2.4 81 1.2 NNW 13 17 7 9 1005.2 1005.4 0.0
31/09:30pm 3.6 0.2 1.6 87 0.8 N 9 11 5 6 1005.7 1005.9 0.0
31/09:00pm 3.9 0.5 1.8 86 0.8 N 9 11 5 6 1006.6 1006.8 0.0
31/08:30pm 3.7 0.6 1.6 86 0.8 N 7 9 4 5 1007.3 1007.5 0.0
31/08:00pm 3.4 0.3 1.1 85 0.9 N 7 9 4 5 1008.0 1008.2 0.0
31/07:30pm 3.9 0.7 0.9 81 1.2 N 7 9 4 5 1008.2 1008.4 0.0
31/07:00pm 5.1 1.6 1.2 76 1.5 N 9 13 5 7 1008.3 1008.5 0.0
31/06:30pm 5.3 1.8 1.1 74 1.7 NNW 9 15 5 8 1008.7 1008.9 0.0
31/06:00pm 6.8 2.9 1.3 68 2.2 N 11 15 6 8 1009.0 1009.2 0.0
31/05:30pm 8.3 4.1 1.7 63 2.7 N 13 17 7 9 1009.1 1009.3 0.0
31/05:00pm 9.2 5.1 2.3 62 2.9 NNW 13 20 7 11 1009.1 1009.3 0.0
31/04:30pm 9.4 5.0 2.9 64 2.8 NW 15 22 8 12 1009.3 1009.5 0.0
31/04:00pm 10.8 6.4 2.9 58 3.4 NW 15 26 8 14 1009.6 1009.8 0.0
31/03:30pm 10.7 6.4 3.3 60 3.2 WNW 15 20 8 11 1010.1 1010.4 0.0
31/03:00pm 10.2 5.4 2.8 60 3.2 NNW 17 26 9 14 1010.5 1010.8 0.0
31/02:30pm 10.3 5.1 2.4 58 3.4 NNW 19 26 10 14 1010.4 1010.7 0.0
31/02:00pm 9.9 4.6 2.0 58 3.3 NNW 19 30 10 16 1010.8 1011.1 0.0
31/01:30pm 9.5 5.9 3.0 64 2.8 NW 11 17 6 9 1011.5 1011.8 0.0
31/01:00pm 9.1 4.7 2.7 64 2.7 WNW 15 24 8 13 1012.0 1012.3 0.0
31/12:30pm 9.2 5.1 2.3 62 2.9 NW 13 19 7 10 1012.5 1012.8 0.0
31/12:00pm 9.6 5.6 3.1 64 2.8 NNW 13 17 7 9 1013.1 1013.4 0.0
31/11:30am 9.0 4.2 2.6 64 2.7 NW 17 26 9 14 1013.5 1013.8 0.0
31/11:00am 8.1 3.6 2.1 66 2.5 WNW 15 22 8 12 1013.7 1014.0 0.0
31/10:30am 7.8 4.0 1.9 66 2.4 NNW 11 17 6 9 1013.5 1013.8 0.0
31/10:00am 7.6 2.9 1.2 64 2.6 NW 15 24 8 13 1013.5 1013.8 0.0
31/09:30am 7.8 3.1 1.2 63 2.7 NNW 15 26 8 14 1013.3 1013.6 0.0
31/09:00am 7.2 2.9 1.1 65 2.5 NW 13 20 7 11 1013.3 1013.6 2.0
31/08:30am 6.2 2.3 0.9 69 2.1 NW 11 20 6 11 1013.5 1013.8 2.0
31/08:00am 4.3 -0.1 0.3 75 1.5 NNW 13 17 7 9 1013.3 1013.6 2.0
31/07:30am 1.4 -2.4 -0.5 87 0.7 NNW 9 11 5 6 1013.0 1013.3 2.0
31/07:00am 2.3 -1.5 -0.4 82 1.0 NNW 9 13 5 7 1012.8 1013.1 2.0
31/06:30am 2.1 -1.7 -0.6 82 1.0 NNW 9 15 5 8 1012.5 1012.8 2.0
31/06:00am 2.4 -1.7 -0.4 82 1.0 N 11 15 6 8 1012.2 1012.5 2.0
31/05:30am 2.5 -1.3 -0.8 79 1.2 N 9 11 5 6 1012.0 1012.3 2.0
31/05:00am 2.7 -1.1 -1.1 76 1.4 N 9 13 5 7 1011.8 1012.1 2.0
31/04:30am 4.4 -0.2 -1.0 68 2.0 NNW 13 22 7 12 1011.5 1011.8 2.0
31/04:00am 5.4 0.7 -1.5 61 2.6 NW 13 19 7 10 1011.4 1011.7 2.0
31/03:30am 5.9 0.9 -1.5 59 2.8 WNW 15 24 8 13 1011.0 1011.3 2.0
31/03:00am 5.9 0.5 -1.0 61 2.6 NNW 17 24 9 13 1010.8 1011.1 2.0
31/02:30am 5.9 1.0 -0.8 62 2.5 WNW 15 20 8 11 1010.5 1010.8 2.0
31/02:00am 6.1 0.4 -0.4 63 2.5 W 19 44 10 24 1010.2 1010.5 2.0
31/01:30am 5.9 0.6 -0.6 63 2.5 WNW 17 28 9 15 1009.5 1009.7 2.0
31/01:00am 5.4 -0.2 0.0 68 2.1 W 19 28 10 15 1009.2 1009.4 2.0
31/12:30am 5.0 0.1 1.8 80 1.3 W 17 37 9 20 1008.7 1008.9 2.0
31/12:00am 6.1 1.5 1.6 73 1.8 W 15 26 8 14 1008.2 1008.4 1.6
 
Date/Time
EST
Temp
°C
App
Temp
°C
Dew
Point
Rel
Hum
%
Delta-T
°C
Wind Press
QNH
hPa
Press
MSL
hPa
Rain
since 9 am
mm
Dir
 
Spd
km/h
Gust
km/h
Spd
kts
Gust
kts
30/11:30pm 5.8 1.6 1.9 76 1.6 NW 13 20 7 11 1007.8 1008.0 1.6
30/11:00pm 5.3 1.1 1.6 77 1.5 WNW 13 19 7 10 1007.2 1007.4 1.6
30/10:30pm 5.8 0.9 1.9 76 1.6 W 17 24 9 13 1007.0 1007.2 1.6
30/10:00pm 6.5 1.3 3.3 80 1.4 W 20 30 11 16 1006.4 1006.6 1.6
30/09:30pm 5.4 2.3 3.4 87 0.8 NNE 9 13 5 7 1005.3 1005.5 1.6
30/09:00pm 6.2 3.2 3.9 85 1.0 N 9 20 5 11 1004.8 1005.0 1.6
30/08:30pm 6.9 3.6 4.6 85 1.0 NNW 11 20 6 11 1003.6 1003.9 1.4
30/08:00pm 7.3 2.8 4.4 82 1.3 NW 17 26 9 14 1002.8 1003.1 1.0
30/07:30pm 7.8 2.3 4.2 78 1.6 NNW 22 35 12 19 1001.8 1002.1 0.8
30/07:00pm 8.3 2.3 5.2 81 1.4 NW 26 43 14 23 1001.4 1001.7 0.8
30/06:30pm 8.8 4.6 5.5 80 1.5 NW 17 28 9 15 1000.5 1000.7 0.2
30/06:00pm 9.3 4.9 4.5 72 2.2 N 17 24 9 13 999.1 999.3 0.0
30/05:30pm 10.0 6.3 4.6 69 2.4 N 13 20 7 11 999.8 1000.0 0.0
30/05:00pm 10.5 5.6 4.2 65 2.8 N 19 24 10 13 999.8 1000.0 0.0
30/04:30pm 10.6 6.5 4.5 66 2.7 N 15 26 8 14 1000.3 1000.5 0.0
30/04:00pm 11.1 6.1 4.6 64 3.0 NNW 20 33 11 18 1000.9 1001.2 0.0
30/03:30pm 11.7 6.9 4.4 61 3.3 N 19 33 10 18 1001.5 1001.8 0.0
30/03:00pm 12.4 7.0 4.4 58 3.7 NNW 22 35 12 19 1001.8 1002.1 0.0
30/02:30pm 13.0 8.0 4.7 57 3.8 NNW 20 33 11 18 1002.1 1002.4 0.0
30/02:00pm 13.1 4.8 4.3 55 4.1 NNW 37 61 20 33 1002.7 1003.0 0.0
30/01:30pm 13.3 6.7 4.2 54 4.2 NNW 28 48 15 26 1003.3 1003.6 0.0
30/01:00pm 13.6 6.2 4.2 53 4.3 NNW 32 56 17 30 1004.3 1004.6 0.0
30/12:46pm 13.3 6.6 3.7 52 4.3 NNW 28 61 15 33 1004.8 1005.0 0.0
30/12:30pm 13.3 6.6 3.9 53 4.3 NNW 28 44 15 24 1005.3 1005.5 0.0
30/12:00pm 13.5 8.0 3.8 52 4.4 NNW 22 41 12 22 1006.1 1006.3 0.0
30/11:44am 12.8 5.6 2.9 51 4.4 NNW 30 50 16 27 1007.1 1007.3 0.0
30/11:30am 13.4 7.8 3.2 50 4.6 NNW 22 44 12 24 1007.8 1008.0 0.0
30/11:00am 12.9 7.8 3.3 52 4.3 NNW 19 30 10 16 1008.8 1009.0 0.0
30/10:30am 12.3 6.7 3.5 55 3.9 N 22 39 12 21 1009.5 1009.7 0.0
30/10:20am 12.2 6.6 3.4 55 3.9 NNW 22 48 12 26 1009.7 1010.0 0.0
30/10:19am 12.2 7.0 3.4 55 3.9 NNW 20 48 11 26 1009.8 1010.1 0.0
30/10:00am 11.3 7.9 4.1 61 3.2 NNW 11 20 6 11 1010.4 1010.7 0.0
30/09:30am 10.8 6.2 3.6 61 3.2 NNW 17 26 9 14 1011.0 1011.3 0.0
30/09:00am 10.3 5.6 3.1 61 3.1 NNW 17 24 9 13 1011.5 1011.8 0.0
30/08:30am 9.8 5.5 3.1 63 2.9 NNW 15 20 8 11 1012.1 1012.4 0.0
30/08:00am 8.8 4.1 3.4 69 2.3 NNW 17 22 9 12 1012.6 1012.9 0.0
30/07:30am 3.8 0.6 3.1 95 0.3 NNW 9 15 5 8 1013.0 1013.3 0.0
30/07:00am 3.0 0.3 2.6 97 0.2 NNW 6 11 3 6 1013.5 1013.8 0.0
30/06:30am 2.4 0.3 1.8 96 0.2 NNW 2 6 1 3 1013.9 1014.2 0.0
30/06:00am 2.3 0.2 1.7 96 0.2 NNW 2 7 1 4 1014.5 1014.8 0.0
30/05:30am 1.9 0.1 0.9 93 0.4 CALM 0 0 0 0 1015.0 1015.3 0.0
30/05:00am 2.6 -0.4 1.1 90 0.6 NW 6 7 3 4 1015.3 1015.6 0.0
30/04:30am 3.5 0.4 1.5 87 0.8 NNW 7 9 4 5 1015.8 1016.1 0.0
30/04:00am 4.7 1.3 1.7 81 1.2 NNW 9 13 5 7 1016.2 1016.4 0.0
30/03:30am 6.7 2.7 3.0 77 1.6 NW 13 19 7 10 1016.6 1016.8 0.0
30/03:00am 6.7 3.2 3.3 79 1.4 NNW 11 17 6 9 1017.1 1017.3 0.0
30/02:30am 6.5 2.5 3.1 79 1.4 NNW 13 17 7 9 1017.5 1017.7 0.0
30/02:00am 4.9 2.1 3.4 90 0.6 N 7 11 4 6 1017.8 1018.0 0.0
30/01:30am 5.1 2.3 3.1 87 0.8 N 7 9 4 5 1018.2 1018.4 0.0
30/01:00am 6.4 3.7 3.7 83 1.1 NNW 7 9 4 5 1018.9 1019.2 0.0
30/12:30am 7.5 3.8 4.5 81 1.3 NNW 13 17 7 9 1019.0 1019.3 0.0
30/12:00am 7.7 4.4 4.8 82 1.3 NNW 11 15 6 8 1019.4 1019.7 0.0
 
Date/Time
EST
Temp
°C
App
Temp
°C
Dew
Point
Rel
Hum
%
Delta-T
°C
Wind Press
QNH
hPa
Press
MSL
hPa
Rain
since 9 am
mm
Dir
 
Spd
km/h
Gust
km/h
Spd
kts
Gust
kts
29/11:30pm 6.9 3.6 4.6 85 1.0 NNW 11 15 6 8 1019.7 1020.0 0.0
29/11:00pm 5.5 2.5 4.0 90 0.6 NNW 9 13 5 7 1019.9 1020.2 0.0
29/10:30pm 5.4 2.3 3.4 87 0.8 NNW 9 11 5 6 1020.3 1020.6 0.0
29/10:00pm 6.5 3.8 3.5 81 1.3 NNW 7 9 4 5 1020.7 1021.0 0.0
29/09:30pm 7.7 4.4 4.3 79 1.5 NNW 11 13 6 7 1021.0 1021.3 0.0
29/09:00pm 8.0 4.7 4.4 78 1.6 N 11 17 6 9 1021.3 1021.6 0.0
29/08:30pm 7.7 4.8 4.7 81 1.3 N 9 13 5 7 1021.5 1021.8 0.0
29/08:00pm 6.3 3.4 4.5 88 0.8 NNW 9 13 5 7 1021.5 1021.8 0.0
29/07:30pm 6.5 3.9 4.3 86 1.0 NNW 7 9 4 5 1021.6 1021.9 0.0
29/07:00pm 7.1 4.5 4.2 82 1.3 N 7 9 4 5 1021.7 1022.0 0.0
29/06:30pm 8.4 5.5 4.8 78 1.6 N 9 11 5 6 1021.7 1022.0 0.0
29/06:00pm 8.2 5.4 5.3 82 1.3 N 9 11 5 6 1021.8 1022.1 0.0
29/05:30pm 9.5 7.4 5.7 77 1.7 NNW 6 9 3 5 1021.9 1022.2 0.0
29/05:00pm 10.3 8.6 6.1 75 1.9 NW 4 7 2 4 1022.0 1022.3 0.0
29/04:30pm 11.2 9.2 6.3 72 2.3 N 6 9 3 5 1022.1 1022.4 0.0
29/04:00pm 11.6 8.3 6.5 71 2.4 NW 13 17 7 9 1022.4 1022.7 0.0
29/03:30pm 11.8 7.7 6.3 69 2.6 WNW 17 32 9 17 1022.7 1023.0 0.0
29/03:00pm 12.2 9.5 5.8 65 3.0 NW 9 15 5 8 1022.9 1023.2 0.0
29/02:30pm 12.2 9.1 5.6 64 3.1 WNW 11 15 6 8 1023.1 1023.4 0.0
29/02:00pm 12.2 8.8 5.8 65 3.0 WNW 13 22 7 12 1023.3 1023.6 0.0
29/01:30pm 12.2 8.4 6.0 66 2.9 NW 15 20 8 11 1023.8 1024.1 0.0
29/01:00pm 12.2 9.2 5.8 65 3.0 NW 11 17 6 9 1024.3 1024.6 0.0
29/12:30pm 12.0 8.9 5.6 65 3.0 NW 11 15 6 8 1024.9 1025.2 0.0
29/12:00pm 12.3 8.5 5.9 65 3.0 WNW 15 28 8 15 1025.5 1025.8 0.0
29/11:30am 12.0 9.4 5.9 66 2.9 NNW 9 15 5 8 1026.0 1026.3 0.0
29/11:00am 11.4 7.9 5.5 67 2.7 NW 13 19 7 10 1026.3 1026.6 0.0
29/10:30am 11.4 7.6 5.7 68 2.7 NNE 15 20 8 11 1026.7 1027.0 0.0
29/10:00am 10.4 7.3 5.6 72 2.2 NNE 11 17 6 9 1026.9 1027.2 0.0
29/09:30am 8.1 6.3 5.2 82 1.3 N 4 11 2 6 1027.4 1027.7 0.0
29/09:00am 6.9 3.1 4.0 82 1.2 NNE 13 20 7 11 1027.7 1027.9 0.0
29/08:30am 6.0 3.0 4.2 88 0.8 N 9 13 5 7 1028.0 1028.3 0.0
29/08:00am 4.2 0.7 3.5 95 0.3 N 11 13 6 7 1028.0 1028.3 0.0
29/07:30am 3.8 0.2 3.2 96 0.2 NNE 11 13 6 7 1027.8 1028.0 0.0
29/07:00am 3.7 0.8 2.7 93 0.4 N 7 9 4 5 1027.7 1027.9 0.0
29/06:30am 4.8 1.3 3.6 92 0.5 N 11 15 6 8 1027.4 1027.7 0.0
29/06:00am 4.6 1.1 3.6 93 0.4 N 11 15 6 8 1027.3 1027.6 0.0
29/05:30am 3.9 0.4 3.3 96 0.2 N 11 15 6 8 1027.3 1027.6 0.0
29/05:00am 4.6 0.7 3.4 92 0.5 N 13 15 7 8 1027.1 1027.4 0.0
29/04:30am 4.8 1.1 4.4 97 0.2 N 13 17 7 9 1027.0 1027.3 0.0
29/04:00am 4.8 2.1 3.8 93 0.4 N 7 9 4 5 1027.1 1027.4 0.0
29/03:30am 6.3 3.0 4.8 90 0.7 N 11 17 6 9 1027.1 1027.4 0.0
29/03:00am 4.2 1.1 3.5 95 0.3 N 9 13 5 7 1027.2 1027.5 0.0
29/02:30am 4.4 1.2 3.2 92 0.5 NNW 9 13 5 7 1027.4 1027.7 0.0
29/02:00am 4.9 1.6 4.3 96 0.3 N 11 15 6 8 1027.5 1027.8 0.0
29/01:30am 5.5 2.6 4.8 95 0.3 N 9 9 5 5 1027.4 1027.7 0.0
29/01:00am 5.5 2.2 4.6 94 0.4 N 11 13 6 7 1027.5 1027.8 0.0
29/12:30am 5.9 2.6 4.7 92 0.5 N 11 17 6 9 1027.7 1027.9 0.0
29/12:00am 7.8 4.8 5.8 87 0.9 NNW 11 15 6 8 1027.9 1028.2 0.0
 
Date/Time
EST
Temp
°C
App
Temp
°C
Dew
Point
Rel
Hum
%
Delta-T
°C
Wind Press
QNH
hPa
Press
MSL
hPa
Rain
since 9 am
mm
Dir
 
Spd
km/h
Gust
km/h
Spd
kts
Gust
kts
28/11:30pm 8.2 5.7 6.7 90 0.7 NNW 9 13 5 7 1027.9 1028.2 0.0

Other Formats:

Comma delimited format used in spreadsheet applications
http://www.bom.gov.au/fwo/IDT60801/IDT60801.94957.axf

JavaScript Object Notation format (JSON) in row-major order
http://www.bom.gov.au/fwo/IDT60801/IDT60801.94957.json